Terminal Aerodrome Forecast
Issued by NWS Cleveland, OH

Home | Current Version | Previous Version | Graphics & Text | Print | Product List | Glossary On
Versions: 1 2 3 4 5 6 7 8 9 10 11 12 13 14 15 16 17 18 19 20 21 22 23
133
FTUS41 KCLE 140533
TAFYNG
TAF
KYNG 140533Z 1406/1506 VRB03KT P6SM BKN130
     FM140900 VRB03KT P6SM SCT120
     FM150500 13004KT P6SM BKN200=

USA.gov is the U.S. government's official web portal to all federal, state and local government web resources and services.